Perugia, Italy

3:15 AM CET on February 18, 2018 (GMT +0100)
Biblioteca Augusta | | Change Station

Elev 1539 ft 43.11 °N, 12.39 °E | Updated 3 minutes ago

Overcast
Overcast
44.2 °F
Feels Like 44 °F
N
3.0
Wind Variable Wind from SE
Gusts 7.0 mph

Today
High -- | Low -- °F
--% Chance of Precip.
Yesterday
High -- | Low -- °F
Precip. -- in
Pressure 29.95 in
Visibility 6.2 miles
Clouds Scattered Clouds 2500 ft
Windchill 44 °F
Dew Point 43 °F
Humidity 96%
Rainfall 0.05 in
Snow Depth Not available.
7:04 AM 5:45 PM
Waxing Crescent, 5% visible
METAR LIVF 180155Z 16009G20KT 9999 SCT025 08/07 Q1014 RMK BKN SCT080 MON S W CIME INC NC VAL NIL VIS MIN 9999
Pressure 29.95 in
Visibility 6.2 miles
Clouds Scattered Clouds 2500 ft
Windchill 44 °F
Dew Point 43 °F
Humidity 96%
Rainfall 0.05 in
Snow Depth Not available.
7:04 AM 5:45 PM
Waxing Crescent, 5% visible
METAR LIVF 180155Z 16009G20KT 9999 SCT025 08/07 Q1014 RMK BKN SCT080 MON S W CIME INC NC VAL NIL VIS MIN 9999

Get Severe Weather Alerts

Thanks for signing up!

Be on the lookout for a verification email in your inbox.

You'll start receiving the daily forecast at 6 AM.

×

10-Day Weather Forecast

Heavy Snow conditions possible.
×

Almanac

Astronomy

Feb. 18, 2018 Rise Set
Actual Time
Civil Twilight
Nautical Twilight
Astronomical Twilight
Moon
Length of Visible Light
Length of Day
Tomorrow will be .
, % of the Moon is Illuminated

Today's Extremes

Country Highs Country Lows

Community

WunderPhotos

Category 6

Welcome to Category 6. This is the collective home for Weather Underground's featured writeups by Dr. Jeff Masters (right), Bob Henson (left), Chris Burt, and other regular contributors.

Nearby

Air Quality

  Air Quality AQ Index Pollutant
Not available.

Snow Depth

Station Depth Elevation

Earthquake Activity

City Distance Mag. Time & Date
Minimum magnitude displayed is 2.5.

Coastal Water Temperatures

Place Temperature

Stations

Nearby Weather Stations

Station Location Temp. Windchill Dew Point Humidity Wind Precip. Elev Updated Type